Friday, October 19, 2018, 11:11 AM GMT
Back to Local

CYCX, Gagetown Can-Mil

Location: , , Canada Lat: 45.833
Local Time: 11:11 AM GMT (11:11 GMT) Lon: -66.433
Time Zone: GMT Elev: 167 ft

Show me the last for .
Show Decoded

2018-10-19 10:00 METAR CYCX 191000Z 23006KT 15SM FEW210 M04/M08 A3009 RMK CI2 DA-2282FT SLP192 =
2018-10-19 09:00 METAR CYCX 190900Z 24007KT 15SM SKC M03/M09 A3009 RMK DA-2167FT SLP193 =
2018-10-19 08:00 METAR CYCX 190800Z 27006KT 15SM SKC M03/M09 A3009 RMK DA-2118FT SLP191 =
2018-10-19 07:00 METAR CYCX 190700Z 27008KT 15SM SKC M02/M09 A3007 RMK DA-2030FT SLP187 =
2018-10-19 06:00 METAR CYCX 190600Z 28006KT 15SM SKC M02/M09 A3007 RMK DA-2017FT SLP184 =
2018-10-19 05:00 METAR CYCX 190500Z 27007KT 15SM SKC M02/M09 A3006 RMK DA-1954FT SLP182 =
2018-10-19 04:00 METAR CYCX 190400Z 27009KT 15SM SKC M01/M09 A3005 RMK DA-1879FT SLP179 =
2018-10-19 03:00 METAR CYCX 190300Z 28011KT 15SM SKC M01/M09 A3004 RMK DA-1803FT SLP176 =
2018-10-19 02:00 METAR CYCX 190200Z 27009G15KT 15SM SKC M00/M08 A3003 RMK DA-1741FT SLP173 =
2018-10-19 01:00 METAR CYCX 190100Z 30008KT 15SM SKC 00/M09 A3002 RMK DA-1667FT SLP168 =
2018-10-19 00:00 METAR CYCX 190000Z 29010KT 15SM SKC 01/M10 A2999 RMK DA-1521FT SLP159 =
2018-10-18 23:00 METAR CYCX 182300Z 29014G26KT 15SM SKC 02/M10 A2997 RMK DA-1373FT SLP149 =
2018-10-18 22:00 METAR CYCX 182200Z 29013G22KT 15SM FEW065 03/M09 A2992 RMK CU1 DA-1264FT SLP134
                 =
2018-10-18 21:00 METAR CYCX 182100Z 29020G27KT 15SM FEW063 03/M09 A2988 RMK SC2 DA-1115FT SLP121
                 =
2018-10-18 20:00 METAR CYCX 182000Z 32015G27KT 15SM BKN062 04/M08 A2985 RMK SC6 DA-1029FT SLP110
                 =
2018-10-18 19:00 METAR CYCX 181900Z 30018G31KT 15SM BKN052 04/M08 A2982 RMK SC5 DA-958FT SLP099 =
2018-10-18 18:00 METAR CYCX 181800Z 30016G33KT 15SM -SHSN BKN049 OVC220 04/M07 A2981 RMK SC7CI1
                 DA-968FT SLP095 =
2018-10-18 17:21 METAR CYCX 181721Z 29016G32KT 15SM -SHSN OVC049 04/M06 A2979 RMK SC8 DA-917FT
                 PCPN VRY LGT SLP092 =
2018-10-18 17:00 METAR CYCX 181700Z 30023G32KT 15SM OVC049 04/M07 A2979 RMK SC8 DA-896FT SLP090 =
2018-10-18 16:00 METAR CYCX 181600Z 30024G31KT 15SM OVC044 04/M07 A2978 RMK SC8 DA-957FT SLP086 =
2018-10-18 15:00 METAR CYCX 181500Z 30022G29KT 15SM -SHSNGS OVC037 03/M05 A2977 RMK SC8 DA-989FT
                 PCPN VRY LGT SLP084 =
2018-10-18 14:35 METAR CYCX 181435Z 30016G25KT 15SM -SHGS OVC037 03/M05 A2977 RMK SC8 DA-1036FT
                 PCPN VRY LGT SLP085 =
2018-10-18 14:00 METAR CYCX 181400Z 29014G29KT 15SM -SHSN BKN037 03/M05 A2977 RMK SC7 DA-1074FT
                 PCPN VRY LGT SLP082 =
2018-10-18 13:27 METAR CYCX 181327Z 29013G26KT 15SM BKN037 BKN220 02/M04 A2976 RMK SC6CI1
                 DA-1086FT SLP081 =
2018-10-18 13:00 METAR CYCX 181300Z 28019G26KT 15SM FEW039 FEW220 03/M04 A2975 RMK CU2CI1
                 DA-1060FT SLP078 =
2018-10-18 12:00 METAR CYCX 181200Z 28010G26KT 15SM FEW015 FEW130 FEW250 01/M04 A2974 RMK
                 CU1AC1CI1 DA-1186FT SLP074 =

Support USWX by starting your Amazon purchase here.